Aviation Digital Data Service (ADDS)

Output produced by METARs form (0017 UTC 25 September 2016)
found at http://aviationweather.gov/adds/metars/
 
KJXN 242322Z 2500/2524 05006KT P6SM SKC 
     FM251400 13005KT P6SM FEW250